KOSC/OSC METAR and TAF weather

Enter ICAO airport designator
Station Type Date Time Source
KOSC METAR 2021/05/11 00:35 UTC NOAA

KOSC 110035Z AUTO 00000KT 10SM SCT065 OVC090 06/02 A3010 RMK AO2 T00600023


Station Type Date Time Source
KOSC Decoded METAR 2021/05/11 00:35 UTC NOAA

Oscoda, Oscoda-Wurtsmith Airport, MI, United States (KOSC) 44-27N 083-22W
May 10, 2021 - 08:35 PM EDT / 2021.05.11 0035 UTC
Wind: Calm:0
Visibility: 10 mile(s):0
Sky conditions: overcast
Temperature: 42.8 F (6.0 C)
Dew Point: 36.1 F (2.3 C)
Relative Humidity: 77%
Pressure (altimeter): 30.1 in. Hg (1019 hPa)
ob: KOSC 110035Z AUTO 00000KT 10SM SCT065 OVC090 06/02 A3010 RMK AO2 T00600023
cycle: 0

Station Type Date Time Source
KOSC TAF UTC NOAA

Error!

Example: see airport list